Time;durP1;ratioP1;P1;durP2;ratioP2;P2;SDS_P1;SDS_P2;PMS_P1;PMS_P2;Temp;Humidity;BMP_temperature;BMP_pressure;BME280_temperature;BME280_humidity;BME280_pressure;Samples;Min_cycle;Max_cycle;Signal;HPM_P1;HPM_P2
2023/06/24 00:02:50;;;;;;;7.90;3.70;;;;;;;;;;5002792;28;20033;-78
2023/06/24 00:08:43;;;;;;;;;;;;;;;;;;;;;
2023/06/24 00:11:14;;;;;;;5.93;3.15;;;;;;;;;;5008699;28;20052;-78
2023/06/24 00:13:43;;;;;;;6.72;3.60;;;;;;;;;;5003071;28;20073;-78
2023/06/24 00:16:50;;;;;;;6.25;2.78;;;;;;;;;;5008078;28;20034;-78
2023/06/24 00:19:26;;;;;;;8.10;3.38;;;;;;;;;;4971046;28;20074;-78
2023/06/24 00:22:18;;;;;;;9.43;3.25;;;;;;;;;;4988083;28;20094;-78
2023/06/24 00:24:46;;;;;;;7.97;3.67;;;;;;;;;;5024168;28;20034;-78
2023/06/24 00:27:17;;;;;;;10.70;4.28;;;;;;;;;;4983449;28;20074;-78
2023/06/24 00:33:20;;;;;;;8.95;4.60;;;;;;;;;;4928178;29;20047;-78
2023/06/24 00:50:51;;;;;;;7.55;3.58;;;;;;;;;;4987263;28;20085;-78
2023/06/24 00:53:47;;;;;;;7.78;3.70;;;;;;;;;;5022183;28;20045;-78
2023/06/24 00:56:25;;;;;;;8.55;3.95;;;;;;;;;;4956139;28;20051;-78
2023/06/24 00:59:41;;;;;;;;;;;;;;;;;;;;;
2023/06/24 01:02:38;;;;;;;;;;;;;;;;;;;;;
2023/06/24 01:07:55;;;;;;;8.82;4.18;;;;;;;;;;4962505;28;19924;-78
2023/06/24 01:10:34;;;;;;;8.82;3.83;;;;;;;;;;4991634;28;20679;-78
2023/06/24 01:13:03;;;;;;;6.05;3.55;;;;;;;;;;4984545;28;20033;-78
2023/06/24 01:16:11;;;;;;;;;;;;;;;;;;;;;
2023/06/24 01:22:21;;;;;;;6.40;3.20;;;;;;;;;;5013374;28;20033;-78
2023/06/24 01:25:24;;;;;;;;;;;;;;;;;;;;;
2023/06/24 01:28:26;;;;;;;8.88;3.40;;;;;;;;;;5012609;28;20076;-78
2023/06/24 01:34:46;;;;;;;;;;;;;;;;;;;;;
2023/06/24 01:37:49;;;;;;;7.78;3.10;;;;;;;;;;4951265;28;20050;-78
2023/06/24 01:40:45;;;;;;;6.55;2.72;;;;;;;;;;4979117;28;20035;-78
2023/06/24 01:43:49;;;;;;;;;;;;;;;;;;;;;
2023/06/24 01:46:38;;;;;;;8.88;2.80;;;;;;;;;;4988075;28;20039;-78
2023/06/24 01:49:33;;;;;;;5.85;2.90;;;;;;;;;;4970603;28;21475;-78
2023/06/24 01:55:32;;;;;;;;;;;;;;;;;;;;;
2023/06/24 01:58:22;;;;;;;6.70;2.67;;;;;;;;;;4940820;28;20386;-78
2023/06/24 02:10:57;;;;;;;7.85;4.60;;;;;;;;;;4959695;28;20071;-78
2023/06/24 02:14:02;;;;;;;5.55;3.33;;;;;;;;;;4972120;28;20624;-78
2023/06/24 02:17:23;;;;;;;;;;;;;;;;;;;;;
2023/06/24 02:23:09;;;;;;;;;;;;;;;;;;;;;
2023/06/24 02:30:58;;;;;;;7.43;3.47;;;;;;;;;;5021641;28;20039;-78
2023/06/24 02:34:03;;;;;;;7.53;3.55;;;;;;;;;;5008794;28;20052;-78
2023/06/24 02:36:56;;;;;;;7.10;3.20;;;;;;;;;;5017625;28;20042;-79
2023/06/24 02:40:10;;;;;;;6.07;3.03;;;;;;;;;;4997654;28;20042;-78
2023/06/24 02:45:57;;;;;;;;;;;;;;;;;;;;;
2023/06/24 02:49:04;;;;;;;5.70;3.03;;;;;;;;;;4956809;28;19917;-78
2023/06/24 02:52:06;;;;;;;5.53;3.47;;;;;;;;;;4966114;28;20121;-78
2023/06/24 02:54:58;;;;;;;6.43;3.25;;;;;;;;;;4962744;28;20069;-78
2023/06/24 02:58:01;;;;;;;7.13;4.00;;;;;;;;;;4979397;28;20364;-78
2023/06/24 03:07:20;;;;;;;7.80;3.67;;;;;;;;;;4913234;28;20048;-78
2023/06/24 03:10:10;;;;;;;6.78;3.35;;;;;;;;;;4993454;28;20468;-78
2023/06/24 03:12:36;;;;;;;6.95;3.33;;;;;;;;;;4980085;28;20046;-78
2023/06/24 03:15:03;;;;;;;5.55;3.30;;;;;;;;;;4992207;28;20026;-78
2023/06/24 03:17:29;;;;;;;7.40;3.25;;;;;;;;;;4985465;28;20057;-78
2023/06/24 03:19:55;;;;;;;8.20;3.60;;;;;;;;;;4988525;28;20021;-78
2023/06/24 03:22:22;;;;;;;7.63;3.63;;;;;;;;;;4981202;28;20053;-78
2023/06/24 03:24:48;;;;;;;5.63;3.13;;;;;;;;;;4989347;28;20037;-78
2023/06/24 03:27:15;;;;;;;5.88;3.58;;;;;;;;;;4988389;28;20045;-78
2023/06/24 03:29:41;;;;;;;6.20;3.20;;;;;;;;;;5000028;28;20395;-78
2023/06/24 03:32:07;;;;;;;5.30;3.15;;;;;;;;;;4988908;28;20058;-78
2023/06/24 03:34:33;;;;;;;6.70;3.10;;;;;;;;;;5005996;28;20569;-78
2023/06/24 03:36:59;;;;;;;6.97;3.58;;;;;;;;;;4997108;28;20081;-78
2023/06/24 03:39:25;;;;;;;9.65;3.30;;;;;;;;;;4998628;28;20030;-78
2023/06/24 03:41:51;;;;;;;7.70;3.28;;;;;;;;;;5008188;28;20034;-78
2023/06/24 03:44:17;;;;;;;5.57;3.53;;;;;;;;;;4998897;28;20058;-78
2023/06/24 03:46:43;;;;;;;6.40;3.92;;;;;;;;;;5007113;28;20128;-78
2023/06/24 03:49:09;;;;;;;8.82;3.78;;;;;;;;;;5005182;28;20038;-78
2023/06/24 04:07:30;;;;;;;7.28;3.58;;;;;;;;;;4990367;28;20064;-78
2023/06/24 04:42:29;;;;;;;;;;;;;;;;;;;;;
2023/06/24 05:14:46;;;;;;;7.45;3.53;;;;;;;;;;5009883;22;20093;-78
2023/06/24 05:31:40;;;;;;;4.85;2.85;;;;;;;;;;4956122;28;20070;-78
2023/06/24 05:37:56;;;;;;;9.85;4.32;;;;;;;;;;5012795;23;20156;-78
2023/06/24 06:21:31;;;;;;;5.45;3.20;;;;;;;;;;5066163;28;20123;-78
2023/06/24 06:43:02;;;;;;;5.35;3.05;;;;;;;;;;4993962;28;20037;-84
2023/06/24 06:48:27;;;;;;;7.43;2.97;;;;;;;;;;4255022;26;20050;-83
2023/06/24 07:07:51;;;;;;;5.95;2.97;;;;;;;;;;5339475;22;20604;-85
2023/06/24 07:11:16;;;;;;;;;;;;;;;;;;;;;
2023/06/24 07:21:03;;;;;;;6.78;2.45;;;;;;;;;;5044466;28;20044;-85
2023/06/24 07:23:39;;;;;;;6.60;3.55;;;;;;;;;;5026496;28;20084;-84
2023/06/24 07:26:37;;;;;;;;;;;;;;;;;;;;;
2023/06/24 07:29:06;;;;;;;5.10;2.75;;;;;;;;;;5048014;28;20489;-85
2023/06/24 07:31:34;;;;;;;5.53;3.25;;;;;;;;;;5036680;28;20402;-85
2023/06/24 07:42:51;;;;;;;5.78;2.85;;;;;;;;;;5011247;28;20096;-86
2023/06/24 07:45:33;;;;;;;9.52;3.25;;;;;;;;;;4988777;28;20045;-85
2023/06/24 07:47:59;;;;;;;5.28;3.38;;;;;;;;;;4996607;28;20092;-88
2023/06/24 07:50:25;;;;;;;5.15;3.05;;;;;;;;;;4995619;28;20046;-80
2023/06/24 07:52:51;;;;;;;14.20;3.25;;;;;;;;;;4999741;28;20077;-80
2023/06/24 07:55:17;;;;;;;4.60;2.88;;;;;;;;;;5010101;28;20065;-80
2023/06/24 07:57:46;;;;;;;5.07;3.08;;;;;;;;;;4992393;28;20049;-80
2023/06/24 08:00:13;;;;;;;6.57;3.10;;;;;;;;;;5001224;28;20032;-80
2023/06/24 08:02:39;;;;;;;6.05;3.30;;;;;;;;;;4991999;28;20642;-80
2023/06/24 08:05:05;;;;;;;7.65;3.63;;;;;;;;;;5010253;28;20130;-80
2023/06/24 08:07:31;;;;;;;5.55;3.03;;;;;;;;;;4991823;28;20125;-80
2023/06/24 08:09:57;;;;;;;6.70;2.65;;;;;;;;;;5010152;28;20112;-80
2023/06/24 08:12:23;;;;;;;5.32;3.20;;;;;;;;;;5008749;28;20045;-80
2023/06/24 08:14:49;;;;;;;7.57;3.55;;;;;;;;;;4999100;28;20099;-80
2023/06/24 08:17:15;;;;;;;6.13;3.45;;;;;;;;;;5009554;28;20053;-80
2023/06/24 08:19:41;;;;;;;5.85;3.13;;;;;;;;;;5009319;28;20061;-80
2023/06/24 08:22:08;;;;;;;4.57;2.97;;;;;;;;;;4990853;28;20727;-80
2023/06/24 08:24:34;;;;;;;6.00;3.30;;;;;;;;;;5009773;28;20030;-80
2023/06/24 08:27:00;;;;;;;10.82;4.07;;;;;;;;;;5000186;28;20052;-80
2023/06/24 08:29:26;;;;;;;6.47;3.40;;;;;;;;;;4991089;28;20042;-80
2023/06/24 08:31:52;;;;;;;4.63;2.92;;;;;;;;;;5002896;28;20048;-85
2023/06/24 08:34:18;;;;;;;6.25;3.53;;;;;;;;;;4994354;28;20092;-85
2023/06/24 08:36:44;;;;;;;6.18;3.40;;;;;;;;;;5003541;28;20045;-86
2023/06/24 08:39:10;;;;;;;6.38;3.90;;;;;;;;;;4994526;28;20054;-87
2023/06/24 08:41:36;;;;;;;7.75;3.42;;;;;;;;;;4991778;28;20720;-85
2023/06/24 08:44:02;;;;;;;8.80;3.42;;;;;;;;;;4994354;28;20046;-85
2023/06/24 08:46:29;;;;;;;6.63;3.10;;;;;;;;;;4991789;28;20042;-85
2023/06/24 08:49:19;;;;;;;5.43;3.13;;;;;;;;;;4988120;28;20042;-84
2023/06/24 08:51:47;;;;;;;8.20;3.60;;;;;;;;;;4951292;28;20157;-83
2023/06/24 08:54:38;;;;;;;6.22;3.30;;;;;;;;;;5128869;22;20120;-81
2023/06/24 08:57:22;;;;;;;5.55;3.70;;;;;;;;;;5043713;23;20060;-83
2023/06/24 09:02:38;;;;;;;6.38;3.47;;;;;;;;;;5359839;22;20044;-80
2023/06/24 09:05:05;;;;;;;6.68;3.47;;;;;;;;;;5004319;28;20076;-85
2023/06/24 09:07:37;;;;;;;5.28;2.80;;;;;;;;;;4998229;28;20037;-87
2023/06/24 09:10:09;;;;;;;8.30;3.17;;;;;;;;;;4975898;28;20473;-85
2023/06/24 09:12:35;;;;;;;7.18;2.92;;;;;;;;;;4978162;28;20042;-81
2023/06/24 09:25:37;;;;;;;7.03;3.30;;;;;;;;;;5543155;22;20120;-81
2023/06/24 09:28:03;;;;;;;5.28;3.00;;;;;;;;;;5037039;28;20037;-79
2023/06/24 09:30:30;;;;;;;5.07;2.90;;;;;;;;;;5048612;28;20068;-85
2023/06/24 09:32:56;;;;;;;7.32;2.90;;;;;;;;;;5048792;28;20076;-81
2023/06/24 09:35:35;;;;;;;5.28;3.17;;;;;;;;;;5047729;28;20090;-84
2023/06/24 09:38:01;;;;;;;5.63;3.05;;;;;;;;;;5045320;28;20037;-83
2023/06/24 09:40:27;;;;;;;6.07;3.35;;;;;;;;;;5045842;28;20043;-81
2023/06/24 09:46:15;;;;;;;5.57;3.47;;;;;;;;;;5043662;28;20055;-86
2023/06/24 09:58:57;;;;;;;4.07;2.28;;;;;;;;;;5021736;28;20128;-80
2023/06/24 10:01:23;;;;;;;8.27;2.90;;;;;;;;;;5031302;28;20120;-81
2023/06/24 10:03:49;;;;;;;5.03;2.90;;;;;;;;;;5029426;28;20061;-80
2023/06/24 10:06:15;;;;;;;5.63;2.80;;;;;;;;;;5031488;28;20479;-81
2023/06/24 10:08:42;;;;;;;6.38;2.78;;;;;;;;;;5030238;28;20114;-81
2023/06/24 10:11:08;;;;;;;4.65;2.45;;;;;;;;;;5015111;28;20041;-81
2023/06/24 10:13:34;;;;;;;5.78;3.03;;;;;;;;;;5009650;28;20429;-85
2023/06/24 10:16:00;;;;;;;6.00;2.85;;;;;;;;;;5009988;28;20033;-85
2023/06/24 10:18:36;;;;;;;5.18;2.55;;;;;;;;;;5006812;28;20053;-81
2023/06/24 10:21:03;;;;;;;7.43;3.08;;;;;;;;;;5028412;28;20777;-85
2023/06/24 10:26:08;;;;;;;7.40;2.78;;;;;;;;;;4722765;26;20054;-84
2023/06/24 10:28:53;;;;;;;5.03;2.75;;;;;;;;;;4984532;28;20089;-80
2023/06/24 11:14:47;;;;;;;6.60;2.88;;;;;;;;;;635202;23;20325;-80
2023/06/24 11:20:43;;;;;;;5.45;2.88;;;;;;;;;;4873002;29;20515;-84
2023/06/24 11:36:56;;;;;;;5.82;2.50;;;;;;;;;;4193921;23;20060;-83
2023/06/24 11:39:43;;;;;;;4.78;2.88;;;;;;;;;;4873668;29;20431;-84
2023/06/24 11:45:05;;;;;;;5.70;2.70;;;;;;;;;;4864462;29;20733;-87
2023/06/24 11:47:34;;;;;;;3.70;2.42;;;;;;;;;;4874066;29;20040;-87
2023/06/24 11:50:04;;;;;;;3.80;2.35;;;;;;;;;;4888843;29;20042;-84
2023/06/24 12:06:01;;;;;;;4.32;2.35;;;;;;;;;;3997806;23;20064;-87
2023/06/24 12:08:31;;;;;;;7.28;3.47;;;;;;;;;;4891169;29;20045;-86
2023/06/24 12:11:31;;;;;;;4.10;2.63;;;;;;;;;;4866551;29;20681;-88
2023/06/24 12:13:57;;;;;;;3.28;2.05;;;;;;;;;;4871742;29;20061;-90
2023/06/24 12:16:27;;;;;;;5.55;2.30;;;;;;;;;;4912775;24;20064;-87
2023/06/24 12:18:53;;;;;;;6.30;2.80;;;;;;;;;;4871104;29;20059;-88
2023/06/24 12:21:19;;;;;;;6.72;2.50;;;;;;;;;;4899011;23;20139;-89
2023/06/24 12:30:00;;;;;;;4.55;2.60;;;;;;;;;;4812053;29;20057;-87
2023/06/24 12:32:26;;;;;;;5.00;2.38;;;;;;;;;;4860114;29;20045;-85
2023/06/24 12:34:52;;;;;;;5.40;2.42;;;;;;;;;;4867493;29;20037;-87
2023/06/24 12:37:22;;;;;;;12.07;3.60;;;;;;;;;;4861525;29;20373;-87
2023/06/24 12:39:52;;;;;;;4.05;2.10;;;;;;;;;;4875542;29;20583;-90
2023/06/24 12:42:21;;;;;;;3.80;2.40;;;;;;;;;;4858122;29;20034;-90
2023/06/24 12:50:35;;;;;;;4.85;2.28;;;;;;;;;;4998543;23;19934;-87
2023/06/24 12:53:01;;;;;;;5.95;2.95;;;;;;;;;;4882475;29;20048;-85
2023/06/24 12:55:27;;;;;;;4.00;2.50;;;;;;;;;;4886132;29;20135;-82
2023/06/24 13:00:57;;;;;;;;;;;;;;;;;;;;;
2023/06/24 13:46:30;;;;;;;6.00;2.65;;;;;;;;;;4802984;29;20066;-83
2023/06/24 14:32:38;;;;;;;6.70;2.60;;;;;;;;;;4807950;29;20053;-84
2023/06/24 14:35:17;;;;;;;4.47;2.72;;;;;;;;;;4862888;29;20057;-89
2023/06/24 14:37:54;;;;;;;9.38;2.90;;;;;;;;;;4862135;29;20498;-89
2023/06/24 14:40:55;;;;;;;;;;;;;;;;;;;;;
2023/06/24 14:43:58;;;;;;;5.00;2.85;;;;;;;;;;4836772;29;20054;-87
2023/06/24 14:46:24;;;;;;;6.55;2.78;;;;;;;;;;4823001;29;20050;-86
2023/06/24 14:48:50;;;;;;;6.78;3.05;;;;;;;;;;4875226;29;20044;-87
2023/06/24 14:51:16;;;;;;;4.95;2.67;;;;;;;;;;5147652;24;20480;-87
2023/06/24 14:59:00;;;;;;;4.93;2.75;;;;;;;;;;4873112;29;20415;-88
2023/06/24 15:01:59;;;;;;;5.45;2.75;;;;;;;;;;4892382;29;20051;-88
2023/06/24 15:04:44;;;;;;;5.20;2.70;;;;;;;;;;4892165;29;20039;-88
2023/06/24 15:07:49;;;;;;;5.63;3.20;;;;;;;;;;4839598;29;20825;-87
2023/06/24 15:10:26;;;;;;;5.55;3.17;;;;;;;;;;4828090;29;20053;-89
2023/06/24 15:13:06;;;;;;;4.80;2.85;;;;;;;;;;4829286;29;20121;-88
2023/06/24 15:15:32;;;;;;;7.97;2.63;;;;;;;;;;4812834;29;20073;-87
2023/06/24 15:17:59;;;;;;;6.10;3.22;;;;;;;;;;4834242;29;20409;-88
2023/06/24 15:20:26;;;;;;;4.90;2.45;;;;;;;;;;4829287;29;20077;-86
2023/06/24 15:26:33;;;;;;;6.22;2.78;;;;;;;;;;4779768;29;20117;-88
2023/06/24 15:29:18;;;;;;;6.55;2.90;;;;;;;;;;4830403;29;20110;-88
2023/06/24 15:31:45;;;;;;;7.40;3.13;;;;;;;;;;4831604;29;20053;-85
2023/06/24 15:34:11;;;;;;;9.65;3.03;;;;;;;;;;4851365;29;20646;-86
2023/06/24 15:36:40;;;;;;;5.05;2.63;;;;;;;;;;4851805;29;20444;-88
2023/06/24 15:39:06;;;;;;;4.55;2.60;;;;;;;;;;4853864;29;20056;-85
2023/06/24 15:44:08;;;;;;;6.65;3.28;;;;;;;;;;4892510;23;20419;-86
2023/06/24 15:46:34;;;;;;;5.82;3.13;;;;;;;;;;4880043;29;20140;-85
2023/06/24 15:49:00;;;;;;;6.07;3.08;;;;;;;;;;4877199;29;20057;-87
2023/06/24 15:51:26;;;;;;;4.30;2.88;;;;;;;;;;4869662;29;20049;-87
2023/06/24 15:54:11;;;;;;;6.10;3.25;;;;;;;;;;4873608;29;20045;-89
2023/06/24 15:59:18;;;;;;;6.18;2.83;;;;;;;;;;5055548;23;20072;-87
2023/06/24 16:01:44;;;;;;;5.43;3.13;;;;;;;;;;4892282;29;20051;-85
2023/06/24 16:04:11;;;;;;;7.65;3.17;;;;;;;;;;4873881;29;20087;-84
2023/06/24 16:06:37;;;;;;;5.22;3.13;;;;;;;;;;4889567;29;20498;-82
2023/06/24 16:09:03;;;;;;;5.38;2.97;;;;;;;;;;4876683;29;20045;-85
2023/06/24 16:11:29;;;;;;;5.72;3.00;;;;;;;;;;4877192;29;20044;-86
2023/06/24 16:13:55;;;;;;;5.38;2.83;;;;;;;;;;4900079;29;20048;-85
2023/06/24 16:16:21;;;;;;;5.60;2.90;;;;;;;;;;4877089;29;20049;-84
2023/06/24 16:18:46;;;;;;;6.95;3.28;;;;;;;;;;4892572;29;20068;-83
2023/06/24 16:21:12;;;;;;;11.05;2.83;;;;;;;;;;4887391;29;20040;-83
2023/06/24 16:23:39;;;;;;;6.03;2.90;;;;;;;;;;4892008;29;20045;-86
2023/06/24 16:26:04;;;;;;;4.93;3.25;;;;;;;;;;4894950;29;20052;-83
2023/06/24 16:28:30;;;;;;;5.85;2.97;;;;;;;;;;4892844;29;20834;-84
2023/06/24 16:30:57;;;;;;;6.20;3.00;;;;;;;;;;4893614;29;20048;-84
2023/06/24 16:33:23;;;;;;;5.47;3.05;;;;;;;;;;4886888;29;20053;-86
2023/06/24 16:35:49;;;;;;;5.80;3.08;;;;;;;;;;4875446;29;20055;-88
2023/06/24 16:38:15;;;;;;;6.65;3.22;;;;;;;;;;4889410;29;20697;-88
2023/06/24 16:40:41;;;;;;;6.43;3.45;;;;;;;;;;4879089;29;20758;-86
2023/06/24 16:43:07;;;;;;;7.03;3.55;;;;;;;;;;4898658;29;20079;-85
2023/06/24 16:45:36;;;;;;;5.30;3.33;;;;;;;;;;4895444;29;20052;-88
2023/06/24 16:48:04;;;;;;;5.25;3.22;;;;;;;;;;4868439;29;20052;-87
2023/06/24 16:50:33;;;;;;;6.25;4.10;;;;;;;;;;4878008;29;20048;-87
2023/06/24 16:52:59;;;;;;;8.00;3.10;;;;;;;;;;4877547;29;20052;-87
2023/06/24 16:55:25;;;;;;;7.25;3.22;;;;;;;;;;4867621;29;20037;-88
2023/06/24 16:57:53;;;;;;;11.90;3.53;;;;;;;;;;4877799;29;20064;-89
2023/06/24 17:00:20;;;;;;;5.53;3.10;;;;;;;;;;4877774;29;20072;-86
2023/06/24 17:02:46;;;;;;;4.82;3.03;;;;;;;;;;4883528;29;20040;-88
2023/06/24 17:05:14;;;;;;;5.35;3.10;;;;;;;;;;4877480;29;20077;-87
2023/06/24 17:07:40;;;;;;;4.97;2.88;;;;;;;;;;4894437;29;20116;-87
2023/06/24 17:10:06;;;;;;;5.32;2.90;;;;;;;;;;4871560;29;20056;-86
2023/06/24 17:12:32;;;;;;;6.43;3.33;;;;;;;;;;4878614;29;20128;-87
2023/06/24 17:14:58;;;;;;;6.38;2.90;;;;;;;;;;4895078;29;20139;-83
2023/06/24 17:17:27;;;;;;;5.72;3.50;;;;;;;;;;4889985;29;20044;-89
2023/06/24 17:19:56;;;;;;;5.97;3.42;;;;;;;;;;4874961;29;20117;-86
2023/06/24 17:22:24;;;;;;;5.70;3.20;;;;;;;;;;4875999;29;20084;-84
2023/06/24 17:24:50;;;;;;;6.85;2.97;;;;;;;;;;4872890;29;20127;-86
2023/06/24 17:27:16;;;;;;;9.40;3.47;;;;;;;;;;4874783;29;20132;-87
2023/06/24 17:29:42;;;;;;;6.13;2.97;;;;;;;;;;4876996;29;20444;-86
2023/06/24 17:32:08;;;;;;;5.07;3.33;;;;;;;;;;4878131;29;20052;-87
2023/06/24 17:34:34;;;;;;;6.65;3.58;;;;;;;;;;4873705;29;20594;-86
2023/06/24 17:37:04;;;;;;;6.55;3.13;;;;;;;;;;4877369;29;20037;-87
2023/06/24 17:39:30;;;;;;;5.88;3.03;;;;;;;;;;4875799;29;20063;-88
2023/06/24 17:41:56;;;;;;;5.68;3.25;;;;;;;;;;4895375;29;20850;-88
2023/06/24 17:44:25;;;;;;;8.60;3.45;;;;;;;;;;4880359;29;20044;-86
2023/06/24 17:46:51;;;;;;;5.38;3.22;;;;;;;;;;4895755;29;20043;-84
2023/06/24 17:49:17;;;;;;;5.97;3.55;;;;;;;;;;4875548;29;20091;-88
2023/06/24 17:51:43;;;;;;;8.30;3.30;;;;;;;;;;4867769;29;20373;-83
2023/06/24 17:54:09;;;;;;;7.68;3.08;;;;;;;;;;4872820;29;20399;-84
2023/06/24 17:56:37;;;;;;;6.00;3.63;;;;;;;;;;4875451;29;20041;-83
2023/06/24 17:59:03;;;;;;;6.18;3.65;;;;;;;;;;4872593;29;20571;-83
2023/06/24 18:01:30;;;;;;;5.30;3.20;;;;;;;;;;4873021;29;20496;-84
2023/06/24 18:09:22;;;;;;;;;;;;;;;;;;;;;
2023/06/24 18:18:24;;;;;;;;;;;;;;;;;;;;;
2023/06/24 18:20:51;;;;;;;5.22;3.25;;;;;;;;;;4842041;29;20045;-87
2023/06/24 18:23:17;;;;;;;5.57;3.35;;;;;;;;;;4855199;29;20039;-87
2023/06/24 18:25:43;;;;;;;6.88;3.78;;;;;;;;;;4836555;29;20079;-85
2023/06/24 18:28:09;;;;;;;5.85;3.53;;;;;;;;;;4843587;29;20046;-87
2023/06/24 18:30:35;;;;;;;7.15;4.25;;;;;;;;;;4836558;29;20095;-83
2023/06/24 18:33:01;;;;;;;6.55;3.63;;;;;;;;;;4839130;29;20053;-87
2023/06/24 18:35:27;;;;;;;7.70;4.07;;;;;;;;;;4836300;29;20054;-87
2023/06/24 18:37:56;;;;;;;10.65;4.88;;;;;;;;;;4835810;29;20452;-86
2023/06/24 18:40:22;;;;;;;12.32;9.02;;;;;;;;;;4831207;29;20133;-84
2023/06/24 18:42:48;;;;;;;11.38;6.88;;;;;;;;;;4834346;29;20128;-85
2023/06/24 18:45:15;;;;;;;11.02;5.75;;;;;;;;;;4841034;29;20057;-85
2023/06/24 18:47:41;;;;;;;6.78;4.53;;;;;;;;;;4830642;29;20120;-83
2023/06/24 18:50:07;;;;;;;8.88;4.22;;;;;;;;;;4839306;29;20133;-83
2023/06/24 18:52:33;;;;;;;6.72;4.63;;;;;;;;;;4831194;29;20050;-84
2023/06/24 18:54:59;;;;;;;6.53;3.83;;;;;;;;;;4835733;29;20053;-84
2023/06/24 18:57:25;;;;;;;8.43;4.05;;;;;;;;;;4839801;29;20042;-84
2023/06/24 18:59:51;;;;;;;7.10;4.28;;;;;;;;;;4839582;29;20132;-83
2023/06/24 19:02:17;;;;;;;8.82;3.80;;;;;;;;;;4840578;29;20045;-82
2023/06/24 19:04:43;;;;;;;6.90;3.53;;;;;;;;;;4843576;29;20046;-83
2023/06/24 19:07:09;;;;;;;6.60;3.67;;;;;;;;;;4839365;29;20476;-83
2023/06/24 19:09:35;;;;;;;8.05;3.83;;;;;;;;;;4834905;29;20057;-83
2023/06/24 19:12:01;;;;;;;5.38;3.47;;;;;;;;;;4824946;29;20050;-82
2023/06/24 19:14:28;;;;;;;8.50;4.10;;;;;;;;;;4840325;29;20492;-82
2023/06/24 19:16:54;;;;;;;6.88;3.55;;;;;;;;;;4826027;29;20092;-82
2023/06/24 19:19:20;;;;;;;6.63;4.78;;;;;;;;;;4822316;29;20039;-82
2023/06/24 19:21:46;;;;;;;5.50;3.58;;;;;;;;;;4823029;29;20042;-83
2023/06/24 19:24:12;;;;;;;6.85;4.22;;;;;;;;;;4818303;29;20466;-83
2023/06/24 19:26:38;;;;;;;9.65;3.70;;;;;;;;;;4821272;29;20050;-82
2023/06/24 19:29:04;;;;;;;7.32;4.40;;;;;;;;;;4815814;29;20042;-82
2023/06/24 19:31:30;;;;;;;6.07;3.67;;;;;;;;;;4814642;29;20504;-82
2023/06/24 19:33:57;;;;;;;5.43;3.72;;;;;;;;;;4814532;29;20089;-83
2023/06/24 19:36:25;;;;;;;9.52;5.45;;;;;;;;;;4815526;29;20053;-85
2023/06/24 19:38:51;;;;;;;8.10;5.05;;;;;;;;;;4812255;29;20802;-83
2023/06/24 19:41:17;;;;;;;6.55;4.72;;;;;;;;;;4827768;29;20042;-83
2023/06/24 19:43:47;;;;;;;9.82;5.40;;;;;;;;;;4808630;29;20059;-84
2023/06/24 19:46:13;;;;;;;7.90;5.10;;;;;;;;;;4818827;29;20118;-83
2023/06/24 19:48:39;;;;;;;9.05;5.80;;;;;;;;;;4820628;29;20050;-83
2023/06/24 19:51:05;;;;;;;10.38;5.60;;;;;;;;;;4806268;29;20876;-84
2023/06/24 19:53:31;;;;;;;13.95;5.47;;;;;;;;;;4817049;29;20058;-84
2023/06/24 19:55:57;;;;;;;8.23;4.35;;;;;;;;;;4812376;29;20047;-83
2023/06/24 19:58:23;;;;;;;9.15;4.68;;;;;;;;;;4815605;29;20074;-84
2023/06/24 20:00:49;;;;;;;8.45;4.30;;;;;;;;;;4809897;29;20073;-89
2023/06/24 20:03:15;;;;;;;8.95;4.60;;;;;;;;;;4813931;29;20069;-83
2023/06/24 20:05:41;;;;;;;5.75;3.58;;;;;;;;;;4823567;29;20054;-84
2023/06/24 20:14:15;;;;;;;7.30;4.65;;;;;;;;;;4879451;29;20108;-82
2023/06/24 20:16:44;;;;;;;7.07;4.25;;;;;;;;;;4867951;29;20060;-83
2023/06/24 20:19:28;;;;;;;7.80;5.20;;;;;;;;;;4881723;29;20479;-83
2023/06/24 20:21:57;;;;;;;10.07;4.82;;;;;;;;;;4872194;29;20377;-82
2023/06/24 20:24:45;;;;;;;7.50;4.68;;;;;;;;;;4884925;29;20047;-82
2023/06/24 20:30:26;;;;;;;;;;;;;;;;;;;;;
2023/06/24 21:04:07;;;;;;;8.80;4.00;;;;;;;;;;953243;27;20309;-82
2023/06/24 21:07:04;;;;;;;8.10;4.43;;;;;;;;;;4853679;29;20389;-82
2023/06/24 22:48:41;;;;;;;;;;;;;;;;;;;;;
2023/06/24 23:07:50;;;;;;;7.53;4.03;;;;;;;;;;4864531;29;20090;-80
2023/06/24 23:21:15;;;;;;;;;;;;;;;;;;;;;
